sensor_id;sensor_type;location;lat;lon;timestamp;pressure;altitude;pressure_sealevel;temperature;humidity
61961;BME280;47923;42.506;24.192;2022-12-07T00:00:29;95476.44;;;4.20;86.56
61961;BME280;47923;42.506;24.192;2022-12-07T00:02:55;95495.63;;;4.22;86.11
61961;BME280;47923;42.506;24.192;2022-12-07T00:05:21;95325.59;;;3.22;86.81
61961;BME280;47923;42.506;24.192;2022-12-07T00:07:46;95611.50;;;5.04;87.16
61961;BME280;47923;42.506;24.192;2022-12-07T00:10:11;95613.72;;;5.02;86.69
61961;BME280;47923;42.506;24.192;2022-12-07T00:12:37;95507.75;;;4.28;86.76
61961;BME280;47923;42.506;24.192;2022-12-07T00:15:02;95406.69;;;3.60;87.23
61961;BME280;47923;42.506;24.192;2022-12-07T00:17:28;95602.69;;;5.03;87.17
61961;BME280;47923;42.506;24.192;2022-12-07T00:19:54;95377.44;;;3.55;87.11
61961;BME280;47923;42.506;24.192;2022-12-07T00:22:19;95610.72;;;5.03;86.63
61961;BME280;47923;42.506;24.192;2022-12-07T00:24:45;95442.19;;;3.87;86.87
61961;BME280;47923;42.506;24.192;2022-12-07T00:27:10;95509.44;;;4.32;86.98
61961;BME280;47923;42.506;24.192;2022-12-07T00:29:35;95607.78;;;4.87;87.66
61961;BME280;47923;42.506;24.192;2022-12-07T00:32:02;95607.47;;;4.80;87.45
61961;BME280;47923;42.506;24.192;2022-12-07T00:34:28;95608.09;;;4.77;87.84
61961;BME280;47923;42.506;24.192;2022-12-07T00:36:53;95540.44;;;4.25;87.99
61961;BME280;47923;42.506;24.192;2022-12-07T00:39:19;95432.44;;;3.56;87.58
61961;BME280;47923;42.506;24.192;2022-12-07T00:41:45;95604.47;;;4.73;88.50
61961;BME280;47923;42.506;24.192;2022-12-07T00:44:10;95157.78;;;1.59;87.54
61961;BME280;47923;42.506;24.192;2022-12-07T00:46:36;95541.88;;;4.31;88.45
61961;BME280;47923;42.506;24.192;2022-12-07T00:49:02;95323.84;;;2.91;87.45
61961;BME280;47923;42.506;24.192;2022-12-07T00:51:27;95604.81;;;4.71;88.05
61961;BME280;47923;42.506;24.192;2022-12-07T00:53:53;95335.47;;;2.95;87.47
61961;BME280;47923;42.506;24.192;2022-12-07T00:56:25;95440.13;;;3.58;87.32
61961;BME280;47923;42.506;24.192;2022-12-07T01:01:21;95463.72;;;3.73;88.31
61961;BME280;47923;42.506;24.192;2022-12-07T01:03:47;95608.59;;;4.70;88.01
61961;BME280;47923;42.506;24.192;2022-12-07T01:06:17;95611.25;;;4.70;87.71
61961;BME280;47923;42.506;24.192;2022-12-07T01:08:43;95136.03;;;1.66;86.93
61961;BME280;47923;42.506;24.192;2022-12-07T01:11:13;95601.63;;;4.69;87.77
61961;BME280;47923;42.506;24.192;2022-12-07T01:13:39;95376.97;;;3.19;87.44
61961;BME280;47923;42.506;24.192;2022-12-07T01:16:06;95599.75;;;4.70;87.99
61961;BME280;47923;42.506;24.192;2022-12-07T01:18:35;95453.19;;;3.68;87.19
61961;BME280;47923;42.506;24.192;2022-12-07T01:23:31;95595.81;;;4.67;87.98
61961;BME280;47923;42.506;24.192;2022-12-07T01:25:59;95593.47;;;4.66;87.99
61961;BME280;47923;42.506;24.192;2022-12-07T01:28:25;95601.19;;;4.67;87.13
61961;BME280;47923;42.506;24.192;2022-12-07T01:31:05;95593.47;;;4.66;87.39
61961;BME280;47923;42.506;24.192;2022-12-07T01:33:36;95426.00;;;3.66;87.43
61961;BME280;47923;42.506;24.192;2022-12-07T01:36:21;95552.88;;;4.47;87.24
61961;BME280;47923;42.506;24.192;2022-12-07T01:38:48;95568.13;;;4.63;87.27
61961;BME280;47923;42.506;24.192;2022-12-07T01:41:16;95570.03;;;4.63;87.36
61961;BME280;47923;42.506;24.192;2022-12-07T01:46:35;95559.16;;;4.59;87.99
61961;BME280;47923;42.506;24.192;2022-12-07T01:49:03;95554.91;;;4.58;87.68
61961;BME280;47923;42.506;24.192;2022-12-07T01:51:29;95422.38;;;3.62;87.76
61961;BME280;47923;42.506;24.192;2022-12-07T01:53:55;95495.31;;;4.14;88.02
61961;BME280;47923;42.506;24.192;2022-12-07T01:56:24;95553.97;;;4.54;88.15
61961;BME280;47923;42.506;24.192;2022-12-07T01:58:53;95093.22;;;1.45;88.03
61961;BME280;47923;42.506;24.192;2022-12-07T02:01:20;95523.81;;;4.19;88.23
61961;BME280;47923;42.506;24.192;2022-12-07T02:03:46;95425.84;;;3.54;88.33
61961;BME280;47923;42.506;24.192;2022-12-07T02:06:16;95469.53;;;3.84;88.41
61961;BME280;47923;42.506;24.192;2022-12-07T02:08:45;95431.31;;;3.66;88.39
61961;BME280;47923;42.506;24.192;2022-12-07T02:11:11;95557.75;;;4.44;88.91
61961;BME280;47923;42.506;24.192;2022-12-07T02:13:40;95413.88;;;3.51;88.57
61961;BME280;47923;42.506;24.192;2022-12-07T02:16:25;95553.84;;;4.42;88.52
61961;BME280;47923;42.506;24.192;2022-12-07T02:35:09;95332.50;;;2.88;89.37
61961;BME280;47923;42.506;24.192;2022-12-07T02:37:50;95555.72;;;4.33;89.57
61961;BME280;47923;42.506;24.192;2022-12-07T02:40:24;95558.56;;;4.36;89.13
61961;BME280;47923;42.506;24.192;2022-12-07T02:43:03;95553.19;;;4.36;89.09
61961;BME280;47923;42.506;24.192;2022-12-07T02:45:34;95546.75;;;4.20;89.38
61961;BME280;47923;42.506;24.192;2022-12-07T02:48:01;95487.78;;;3.99;89.37
61961;BME280;47923;42.506;24.192;2022-12-07T02:50:27;95522.38;;;4.22;89.88
61961;BME280;47923;42.506;24.192;2022-12-07T02:52:54;95355.13;;;3.17;89.72
61961;BME280;47923;42.506;24.192;2022-12-07T02:55:26;95327.78;;;3.02;90.01
61961;BME280;47923;42.506;24.192;2022-12-07T03:01:20;95539.03;;;4.36;88.88
61961;BME280;47923;42.506;24.192;2022-12-07T03:03:49;95461.22;;;3.85;88.90
61961;BME280;47923;42.506;24.192;2022-12-07T03:06:31;95536.38;;;4.36;89.20
61961;BME280;47923;42.506;24.192;2022-12-07T03:09:14;95413.28;;;3.54;89.02
61961;BME280;47923;42.506;24.192;2022-12-07T03:11:53;95408.84;;;3.58;89.25
61961;BME280;47923;42.506;24.192;2022-12-07T03:14:34;95296.50;;;2.77;88.92
61961;BME280;47923;42.506;24.192;2022-12-07T03:17:14;95534.63;;;4.31;89.94
61961;BME280;47923;42.506;24.192;2022-12-07T03:19:42;95525.81;;;4.31;90.18
61961;BME280;47923;42.506;24.192;2022-12-07T03:22:12;95465.59;;;3.81;89.79
61961;BME280;47923;42.506;24.192;2022-12-07T03:24:47;95524.91;;;4.27;90.63
61961;BME280;47923;42.506;24.192;2022-12-07T03:27:34;95463.25;;;3.80;90.40
61961;BME280;47923;42.506;24.192;2022-12-07T03:30:10;95527.72;;;4.22;90.32
61961;BME280;47923;42.506;24.192;2022-12-07T03:32:49;95476.31;;;3.90;89.91
61961;BME280;47923;42.506;24.192;2022-12-07T03:35:31;95426.63;;;3.46;90.05
61961;BME280;47923;42.506;24.192;2022-12-07T03:38:22;95464.19;;;3.75;90.65
61961;BME280;47923;42.506;24.192;2022-12-07T03:40:59;95464.34;;;3.79;90.05
61961;BME280;47923;42.506;24.192;2022-12-07T03:43:27;95525.19;;;4.08;89.83
61961;BME280;47923;42.506;24.192;2022-12-07T03:54:19;95490.44;;;3.73;90.79
61961;BME280;47923;42.506;24.192;2022-12-07T03:56:47;95301.03;;;2.51;90.79
61961;BME280;47923;42.506;24.192;2022-12-07T03:59:14;95386.66;;;3.06;90.43
61961;BME280;47923;42.506;24.192;2022-12-07T04:01:44;95514.34;;;3.78;91.47
61961;BME280;47923;42.506;24.192;2022-12-07T04:04:10;95520.31;;;3.75;91.35
61961;BME280;47923;42.506;24.192;2022-12-07T04:06:36;95512.31;;;3.75;91.02
61961;BME280;47923;42.506;24.192;2022-12-07T04:09:01;95512.31;;;3.75;91.52
61961;BME280;47923;42.506;24.192;2022-12-07T04:11:27;95418.56;;;3.20;90.63
61961;BME280;47923;42.506;24.192;2022-12-07T04:13:52;95202.63;;;1.75;91.01
61961;BME280;47923;42.506;24.192;2022-12-07T04:16:36;95453.00;;;3.39;90.80
61961;BME280;47923;42.506;24.192;2022-12-07T04:19:02;95445.75;;;3.30;90.85
61961;BME280;47923;42.506;24.192;2022-12-07T04:21:27;95454.25;;;3.32;91.47
61961;BME280;47923;42.506;24.192;2022-12-07T04:23:53;95481.44;;;3.43;91.31
61961;BME280;47923;42.506;24.192;2022-12-07T04:26:18;95349.81;;;2.51;91.92
61961;BME280;47923;42.506;24.192;2022-12-07T04:28:44;95512.09;;;3.54;91.87
61961;BME280;47923;42.506;24.192;2022-12-07T04:31:09;95440.69;;;3.12;92.40
61961;BME280;47923;42.506;24.192;2022-12-07T04:33:35;95500.47;;;3.50;92.37
61961;BME280;47923;42.506;24.192;2022-12-07T04:36:02;95518.69;;;3.48;92.49
61961;BME280;47923;42.506;24.192;2022-12-07T04:38:27;95501.41;;;3.46;92.66
61961;BME280;47923;42.506;24.192;2022-12-07T04:40:52;95366.94;;;2.59;92.67
61961;BME280;47923;42.506;24.192;2022-12-07T04:43:18;95443.16;;;2.99;92.83
61961;BME280;47923;42.506;24.192;2022-12-07T04:45:47;95505.00;;;3.32;93.46
61961;BME280;47923;42.506;24.192;2022-12-07T04:48:13;95506.22;;;3.26;92.59
61961;BME280;47923;42.506;24.192;2022-12-07T04:50:39;95300.59;;;1.78;92.40
61961;BME280;47923;42.506;24.192;2022-12-07T04:53:05;95425.28;;;2.52;93.07
61961;BME280;47923;42.506;24.192;2022-12-07T04:55:30;95474.66;;;2.80;93.75
61961;BME280;47923;42.506;24.192;2022-12-07T04:57:56;95330.91;;;1.68;93.37
61961;BME280;47923;42.506;24.192;2022-12-07T05:00:21;95376.69;;;1.92;93.93
61961;BME280;47923;42.506;24.192;2022-12-07T05:02:47;95510.56;;;2.74;94.05
61961;BME280;47923;42.506;24.192;2022-12-07T05:05:12;95297.31;;;1.27;94.51
61961;BME280;47923;42.506;24.192;2022-12-07T05:07:38;95519.44;;;2.61;94.57
61961;BME280;47923;42.506;24.192;2022-12-07T05:10:04;95513.44;;;2.55;94.86
61961;BME280;47923;42.506;24.192;2022-12-07T05:12:30;95497.78;;;2.31;95.35
61961;BME280;47923;42.506;24.192;2022-12-07T05:14:55;95402.22;;;1.71;95.56
61961;BME280;47923;42.506;24.192;2022-12-07T05:17:20;95518.56;;;2.43;96.07
61961;BME280;47923;42.506;24.192;2022-12-07T05:19:46;95398.53;;;1.58;95.93
61961;BME280;47923;42.506;24.192;2022-12-07T05:22:11;95510.69;;;2.38;96.56
61961;BME280;47923;42.506;24.192;2022-12-07T05:24:38;95511.81;;;2.45;96.03
61961;BME280;47923;42.506;24.192;2022-12-07T05:27:04;95430.75;;;1.93;95.71
61961;BME280;47923;42.506;24.192;2022-12-07T05:29:29;95517.63;;;2.47;96.25
61961;BME280;47923;42.506;24.192;2022-12-07T05:31:55;95514.38;;;2.51;96.17
61961;BME280;47923;42.506;24.192;2022-12-07T05:34:20;95342.78;;;1.39;95.81
61961;BME280;47923;42.506;24.192;2022-12-07T05:36:46;95508.25;;;2.50;95.62
61961;BME280;47923;42.506;24.192;2022-12-07T05:39:11;95484.44;;;2.31;95.44
61961;BME280;47923;42.506;24.192;2022-12-07T05:41:37;95524.06;;;2.46;95.40
61961;BME280;47923;42.506;24.192;2022-12-07T05:44:21;95504.72;;;2.41;95.66
61961;BME280;47923;42.506;24.192;2022-12-07T05:46:46;95511.94;;;2.40;96.41
61961;BME280;47923;42.506;24.192;2022-12-07T05:49:12;95512.72;;;2.41;96.49
61961;BME280;47923;42.506;24.192;2022-12-07T05:51:37;95514.28;;;2.42;96.39
61961;BME280;47923;42.506;24.192;2022-12-07T05:54:03;95504.78;;;2.27;96.72
61961;BME280;47923;42.506;24.192;2022-12-07T05:56:28;95285.34;;;1.02;96.39
61961;BME280;47923;42.506;24.192;2022-12-07T05:58:54;95293.13;;;1.13;96.01
61961;BME280;47923;42.506;24.192;2022-12-07T06:01:38;95464.22;;;2.30;96.20
61961;BME280;47923;42.506;24.192;2022-12-07T06:04:03;95462.13;;;2.27;95.88
61961;BME280;47923;42.506;24.192;2022-12-07T06:06:29;95376.78;;;1.87;96.08
61961;BME280;47923;42.506;24.192;2022-12-07T06:08:54;95536.50;;;2.82;95.77
61961;BME280;47923;42.506;24.192;2022-12-07T06:11:20;95481.22;;;2.74;95.68
61961;BME280;47923;42.506;24.192;2022-12-07T06:14:04;95328.00;;;1.78;95.13
61961;BME280;47923;42.506;24.192;2022-12-07T06:16:29;95517.00;;;3.13;94.42
61961;BME280;47923;42.506;24.192;2022-12-07T06:18:55;95521.13;;;3.19;94.24
61961;BME280;47923;42.506;24.192;2022-12-07T06:21:20;95532.28;;;3.21;93.60
61961;BME280;47923;42.506;24.192;2022-12-07T06:23:46;95537.34;;;3.31;93.59
61961;BME280;47923;42.506;24.192;2022-12-07T06:26:13;95532.84;;;3.49;93.09
61961;BME280;47923;42.506;24.192;2022-12-07T06:28:38;95527.38;;;3.63;92.56
61961;BME280;47923;42.506;24.192;2022-12-07T06:31:04;95521.41;;;3.74;91.45
61961;BME280;47923;42.506;24.192;2022-12-07T06:33:29;95225.28;;;1.55;90.68
61961;BME280;47923;42.506;24.192;2022-12-07T06:35:55;95357.84;;;2.68;90.34
61961;BME280;47923;42.506;24.192;2022-12-07T06:38:20;95549.25;;;3.82;89.99
61961;BME280;47923;42.506;24.192;2022-12-07T06:40:46;95528.16;;;3.89;89.90
61961;BME280;47923;42.506;24.192;2022-12-07T06:43:12;95455.69;;;3.47;89.63
61961;BME280;47923;42.506;24.192;2022-12-07T06:45:37;95146.47;;;1.54;88.74
61961;BME280;47923;42.506;24.192;2022-12-07T06:48:03;95537.31;;;4.23;88.27
61961;BME280;47923;42.506;24.192;2022-12-07T06:50:28;95357.47;;;3.18;88.24
61961;BME280;47923;42.506;24.192;2022-12-07T06:52:54;95247.97;;;2.32;87.16
61961;BME280;47923;42.506;24.192;2022-12-07T06:55:19;95391.41;;;3.26;87.34
61961;BME280;47923;42.506;24.192;2022-12-07T06:57:44;95545.31;;;4.31;87.54
61961;BME280;47923;42.506;24.192;2022-12-07T07:00:10;95495.94;;;4.03;86.96
61961;BME280;47923;42.506;24.192;2022-12-07T07:02:36;95169.56;;;1.67;86.96
61961;BME280;47923;42.506;24.192;2022-12-07T07:05:02;95545.63;;;4.47;87.08
61961;BME280;47923;42.506;24.192;2022-12-07T07:07:28;95545.31;;;4.57;86.96
61961;BME280;47923;42.506;24.192;2022-12-07T07:09:54;95475.34;;;4.29;86.92
61961;BME280;47923;42.506;24.192;2022-12-07T07:12:20;95530.94;;;4.79;86.31
61961;BME280;47923;42.506;24.192;2022-12-07T07:14:45;95514.59;;;4.72;86.02
61961;BME280;47923;42.506;24.192;2022-12-07T07:17:10;95535.94;;;4.89;85.48
61961;BME280;47923;42.506;24.192;2022-12-07T07:19:36;95537.03;;;4.97;85.22
61961;BME280;47923;42.506;24.192;2022-12-07T07:22:03;95362.31;;;3.94;84.67
61961;BME280;47923;42.506;24.192;2022-12-07T07:24:28;95360.56;;;3.98;84.02
61961;BME280;47923;42.506;24.192;2022-12-07T07:26:54;95482.63;;;4.67;84.63
61961;BME280;47923;42.506;24.192;2022-12-07T07:29:19;95182.56;;;2.86;83.98
61961;BME280;47923;42.506;24.192;2022-12-07T07:31:45;95434.97;;;4.60;83.13
61961;BME280;47923;42.506;24.192;2022-12-07T07:34:10;95382.09;;;4.02;82.68
61961;BME280;47923;42.506;24.192;2022-12-07T07:36:36;95530.94;;;5.55;82.88
61961;BME280;47923;42.506;24.192;2022-12-07T07:39:01;95477.38;;;5.26;82.20
61961;BME280;47923;42.506;24.192;2022-12-07T07:41:27;95324.25;;;4.44;81.53
61961;BME280;47923;42.506;24.192;2022-12-07T07:43:52;95478.59;;;5.58;80.37
61961;BME280;47923;42.506;24.192;2022-12-07T07:46:18;95534.31;;;6.03;80.38
61961;BME280;47923;42.506;24.192;2022-12-07T07:48:43;95480.13;;;5.89;80.49
61961;BME280;47923;42.506;24.192;2022-12-07T07:51:08;95429.91;;;5.77;79.43
61961;BME280;47923;42.506;24.192;2022-12-07T07:53:34;95516.97;;;6.42;78.37
61961;BME280;47923;42.506;24.192;2022-12-07T07:56:00;95373.28;;;5.78;77.65
61961;BME280;47923;42.506;24.192;2022-12-07T07:58:25;95494.88;;;6.57;77.38
61961;BME280;47923;42.506;24.192;2022-12-07T08:00:51;95186.56;;;4.83;76.19
61961;BME280;47923;42.506;24.192;2022-12-07T08:03:17;95496.03;;;6.81;75.49
61961;BME280;47923;42.506;24.192;2022-12-07T08:05:43;95525.47;;;6.89;75.68
61961;BME280;47923;42.506;24.192;2022-12-07T08:08:08;95484.16;;;6.70;74.97
61961;BME280;47923;42.506;24.192;2022-12-07T08:10:34;95435.66;;;6.42;75.01
61961;BME280;47923;42.506;24.192;2022-12-07T08:13:01;95437.13;;;6.51;75.01
61961;BME280;47923;42.506;24.192;2022-12-07T08:15:37;95387.13;;;6.34;74.82
61961;BME280;47923;42.506;24.192;2022-12-07T08:18:03;95401.41;;;6.84;73.85
61961;BME280;47923;42.506;24.192;2022-12-07T08:20:32;95522.16;;;7.78;73.09
61961;BME280;47923;42.506;24.192;2022-12-07T08:22:58;95460.63;;;7.36;72.64
61961;BME280;47923;42.506;24.192;2022-12-07T08:25:24;95522.16;;;7.78;72.25
61961;BME280;47923;42.506;24.192;2022-12-07T08:27:51;95519.34;;;7.99;72.34
61961;BME280;47923;42.506;24.192;2022-12-07T08:30:16;95516.63;;;8.11;72.61
61961;BME280;47923;42.506;24.192;2022-12-07T08:32:44;95471.34;;;7.61;71.82
61961;BME280;47923;42.506;24.192;2022-12-07T08:35:10;95530.22;;;8.02;72.46
61961;BME280;47923;42.506;24.192;2022-12-07T08:37:35;95523.91;;;8.23;71.51
61961;BME280;47923;42.506;24.192;2022-12-07T08:40:01;95503.28;;;8.55;70.69
61961;BME280;47923;42.506;24.192;2022-12-07T08:42:27;95480.63;;;8.72;68.51
61961;BME280;47923;42.506;24.192;2022-12-07T08:44:56;95518.78;;;9.33;67.94
61961;BME280;47923;42.506;24.192;2022-12-07T08:47:22;95452.00;;;9.11;66.02
61961;BME280;47923;42.506;24.192;2022-12-07T08:49:50;95510.31;;;10.02;65.88
61961;BME280;47923;42.506;24.192;2022-12-07T08:52:17;95390.91;;;9.69;63.42
61961;BME280;47923;42.506;24.192;2022-12-07T08:54:43;95508.38;;;10.76;61.43
61961;BME280;47923;42.506;24.192;2022-12-07T08:57:09;95351.06;;;10.02;60.37
61961;BME280;47923;42.506;24.192;2022-12-07T08:59:37;95510.31;;;10.98;61.05
61961;BME280;47923;42.506;24.192;2022-12-07T09:02:04;95409.38;;;10.87;59.07
61961;BME280;47923;42.506;24.192;2022-12-07T09:04:30;95338.19;;;10.79;58.88
61961;BME280;47923;42.506;24.192;2022-12-07T09:06:55;95510.66;;;12.15;56.17
61961;BME280;47923;42.506;24.192;2022-12-07T09:09:21;95484.81;;;12.55;54.51
61961;BME280;47923;42.506;24.192;2022-12-07T09:11:46;95484.25;;;13.13;52.64
61961;BME280;47923;42.506;24.192;2022-12-07T09:14:12;95497.34;;;13.04;51.69
61961;BME280;47923;42.506;24.192;2022-12-07T09:16:38;95452.06;;;13.08;51.41
61961;BME280;47923;42.506;24.192;2022-12-07T09:19:04;95484.84;;;13.80;50.33
61961;BME280;47923;42.506;24.192;2022-12-07T09:21:29;95385.22;;;13.26;50.32
61961;BME280;47923;42.506;24.192;2022-12-07T09:23:55;95477.91;;;13.87;50.96
61961;BME280;47923;42.506;24.192;2022-12-07T09:26:20;95393.38;;;13.30;49.94
61961;BME280;47923;42.506;24.192;2022-12-07T09:28:46;95297.75;;;12.92;49.20
61961;BME280;47923;42.506;24.192;2022-12-07T09:31:12;95465.06;;;14.49;48.93
61961;BME280;47923;42.506;24.192;2022-12-07T09:33:37;95461.56;;;14.52;47.86
61961;BME280;47923;42.506;24.192;2022-12-07T09:36:03;95469.34;;;13.81;49.17
61961;BME280;47923;42.506;24.192;2022-12-07T09:38:29;95414.09;;;14.39;48.98
61961;BME280;47923;42.506;24.192;2022-12-07T09:40:56;95387.34;;;13.58;49.20
61961;BME280;47923;42.506;24.192;2022-12-07T09:43:24;95402.34;;;14.10;49.35
61961;BME280;47923;42.506;24.192;2022-12-07T09:45:52;95355.16;;;14.54;47.03
61961;BME280;47923;42.506;24.192;2022-12-07T09:48:28;95450.47;;;15.39;45.03
61961;BME280;47923;42.506;24.192;2022-12-07T09:50:57;95445.78;;;15.47;45.66
61961;BME280;47923;42.506;24.192;2022-12-07T09:53:33;95381.63;;;14.82;46.19
61961;BME280;47923;42.506;24.192;2022-12-07T09:56:00;95403.28;;;14.46;47.33
61961;BME280;47923;42.506;24.192;2022-12-07T09:58:28;95432.06;;;14.58;46.88
61961;BME280;47923;42.506;24.192;2022-12-07T10:01:21;95419.75;;;15.35;46.43
61961;BME280;47923;42.506;24.192;2022-12-07T10:03:51;95427.13;;;15.49;45.25
61961;BME280;47923;42.506;24.192;2022-12-07T10:06:17;95428.56;;;16.25;44.80
61961;BME280;47923;42.506;24.192;2022-12-07T10:08:43;95415.47;;;15.38;44.40
61961;BME280;47923;42.506;24.192;2022-12-07T10:11:10;95334.53;;;15.63;43.54
61961;BME280;47923;42.506;24.192;2022-12-07T10:13:40;95423.94;;;16.95;41.50
61961;BME280;47923;42.506;24.192;2022-12-07T10:16:08;95052.69;;;14.46;41.59
61961;BME280;47923;42.506;24.192;2022-12-07T10:18:53;95414.97;;;16.95;41.56
61961;BME280;47923;42.506;24.192;2022-12-07T10:21:25;95415.50;;;17.31;42.49
61961;BME280;47923;42.506;24.192;2022-12-07T10:24:01;95407.94;;;17.49;42.42
61961;BME280;47923;42.506;24.192;2022-12-07T10:28:58;95422.47;;;15.21;44.66
61961;BME280;47923;42.506;24.192;2022-12-07T10:31:24;95422.03;;;15.94;46.48
61961;BME280;47923;42.506;24.192;2022-12-07T10:33:56;95367.06;;;16.13;43.19
61961;BME280;47923;42.506;24.192;2022-12-07T10:39:09;95404.16;;;16.80;41.77
61961;BME280;47923;42.506;24.192;2022-12-07T10:41:35;95396.53;;;16.47;42.69
61961;BME280;47923;42.506;24.192;2022-12-07T10:44:01;95402.63;;;15.63;43.57
61961;BME280;47923;42.506;24.192;2022-12-07T10:46:47;95296.50;;;14.42;44.65
61961;BME280;47923;42.506;24.192;2022-12-07T11:00:11;95387.09;;;13.80;49.03
61961;BME280;47923;42.506;24.192;2022-12-07T11:02:58;95384.31;;;13.73;48.92
61961;BME280;47923;42.506;24.192;2022-12-07T11:05:35;95373.19;;;12.83;50.66
61961;BME280;47923;42.506;24.192;2022-12-07T11:13:35;95370.28;;;12.58;51.21
61961;BME280;47923;42.506;24.192;2022-12-07T11:24:10;95360.16;;;12.14;53.48
61961;BME280;47923;42.506;24.192;2022-12-07T11:37:41;95297.59;;;11.29;54.74
61961;BME280;47923;42.506;24.192;2022-12-07T11:40:29;95359.31;;;12.10;55.19
61961;BME280;47923;42.506;24.192;2022-12-07T11:43:03;95242.16;;;11.79;53.52
61961;BME280;47923;42.506;24.192;2022-12-07T11:45:32;95350.59;;;12.64;52.90
61961;BME280;47923;42.506;24.192;2022-12-07T11:48:16;95346.16;;;12.45;53.48
61961;BME280;47923;42.506;24.192;2022-12-07T11:50:50;95359.66;;;12.83;54.94
61961;BME280;47923;42.506;24.192;2022-12-07T11:53:21;95197.53;;;11.62;53.60
61961;BME280;47923;42.506;24.192;2022-12-07T11:56:09;95341.38;;;12.32;54.30
61961;BME280;47923;42.506;24.192;2022-12-07T12:06:37;95281.53;;;11.13;58.13
61961;BME280;47923;42.506;24.192;2022-12-07T12:09:16;95332.09;;;11.09;58.14
61961;BME280;47923;42.506;24.192;2022-12-07T12:23:01;95261.75;;;10.30;61.13
61961;BME280;47923;42.506;24.192;2022-12-07T12:25:38;95316.06;;;10.97;61.99
61961;BME280;47923;42.506;24.192;2022-12-07T12:28:05;94962.34;;;8.50;61.42
61961;BME280;47923;42.506;24.192;2022-12-07T12:30:37;95307.13;;;10.93;61.43
61961;BME280;47923;42.506;24.192;2022-12-07T12:33:27;95261.38;;;10.54;61.69
61961;BME280;47923;42.506;24.192;2022-12-07T12:36:26;95280.16;;;10.47;62.72
61961;BME280;47923;42.506;24.192;2022-12-07T12:49:35;95298.94;;;10.63;64.47
61961;BME280;47923;42.506;24.192;2022-12-07T12:54:58;95080.38;;;8.86;63.90
61961;BME280;47923;42.506;24.192;2022-12-07T12:57:29;95121.22;;;9.08;64.86
61961;BME280;47923;42.506;24.192;2022-12-07T13:00:00;95302.34;;;10.14;66.46
61961;BME280;47923;42.506;24.192;2022-12-07T13:02:35;95114.41;;;8.95;65.79
61961;BME280;47923;42.506;24.192;2022-12-07T13:20:58;95117.53;;;8.58;68.20
61961;BME280;47923;42.506;24.192;2022-12-07T13:26:04;95291.31;;;9.61;69.05
61961;BME280;47923;42.506;24.192;2022-12-07T13:28:40;95247.16;;;9.30;69.69
61961;BME280;47923;42.506;24.192;2022-12-07T13:33:53;95281.38;;;9.65;69.53
61961;BME280;47923;42.506;24.192;2022-12-07T13:36:22;95210.41;;;9.03;69.45
61961;BME280;47923;42.506;24.192;2022-12-07T13:38:54;95219.94;;;9.16;69.91
61961;BME280;47923;42.506;24.192;2022-12-07T13:41:25;95252.16;;;9.28;70.09
61961;BME280;47923;42.506;24.192;2022-12-07T13:44:07;95300.16;;;9.23;70.30
61961;BME280;47923;42.506;24.192;2022-12-07T13:47:11;95298.28;;;9.07;72.12
61961;BME280;47923;42.506;24.192;2022-12-07T13:49:46;95234.22;;;8.46;72.27
61961;BME280;47923;42.506;24.192;2022-12-07T13:52:25;95299.94;;;8.61;73.56
61961;BME280;47923;42.506;24.192;2022-12-07T13:57:33;95300.94;;;8.25;76.01
61961;BME280;47923;42.506;24.192;2022-12-07T14:00:02;95301.31;;;8.23;75.51
61961;BME280;47923;42.506;24.192;2022-12-07T14:02:30;95314.66;;;8.20;75.87
61961;BME280;47923;42.506;24.192;2022-12-07T14:05:23;95274.94;;;7.85;77.08
61961;BME280;47923;42.506;24.192;2022-12-07T14:10:34;95190.50;;;7.14;77.23
61961;BME280;47923;42.506;24.192;2022-12-07T14:13:01;95307.22;;;7.85;77.97
61961;BME280;47923;42.506;24.192;2022-12-07T14:15:29;95313.22;;;7.79;78.11
61961;BME280;47923;42.506;24.192;2022-12-07T14:17:57;95310.56;;;7.66;79.07
61961;BME280;47923;42.506;24.192;2022-12-07T14:22:56;95253.00;;;6.99;79.78
61961;BME280;47923;42.506;24.192;2022-12-07T14:25:26;95325.97;;;7.41;79.91
61961;BME280;47923;42.506;24.192;2022-12-07T14:30:23;95318.53;;;7.23;80.79
61961;BME280;47923;42.506;24.192;2022-12-07T14:33:01;95323.94;;;7.10;81.31
61961;BME280;47923;42.506;24.192;2022-12-07T14:35:27;95214.06;;;6.28;81.99
61961;BME280;47923;42.506;24.192;2022-12-07T14:37:53;95328.44;;;6.94;82.25
61961;BME280;47923;42.506;24.192;2022-12-07T14:40:22;95086.97;;;5.35;82.14
61961;BME280;47923;42.506;24.192;2022-12-07T14:42:53;95330.00;;;6.83;82.97
61961;BME280;47923;42.506;24.192;2022-12-07T14:45:21;95320.63;;;6.77;83.26
61961;BME280;47923;42.506;24.192;2022-12-07T14:47:47;95321.19;;;6.70;83.50
61961;BME280;47923;42.506;24.192;2022-12-07T14:50:15;95322.09;;;6.62;83.45
61961;BME280;47923;42.506;24.192;2022-12-07T14:52:43;95325.66;;;6.54;83.81
61961;BME280;47923;42.506;24.192;2022-12-07T14:55:16;95323.31;;;6.40;84.05
61961;BME280;47923;42.506;24.192;2022-12-07T14:57:43;95327.53;;;6.29;84.89
61961;BME280;47923;42.506;24.192;2022-12-07T15:00:13;95332.53;;;6.18;85.16
61961;BME280;47923;42.506;24.192;2022-12-07T15:02:39;95283.94;;;5.87;85.82
61961;BME280;47923;42.506;24.192;2022-12-07T15:05:05;95333.19;;;6.15;85.77
61961;BME280;47923;42.506;24.192;2022-12-07T15:07:30;94979.25;;;3.81;85.50
61961;BME280;47923;42.506;24.192;2022-12-07T15:09:56;95331.44;;;6.19;85.83
61961;BME280;47923;42.506;24.192;2022-12-07T15:12:22;95349.53;;;6.22;86.37
61961;BME280;47923;42.506;24.192;2022-12-07T15:14:48;95202.47;;;5.21;85.47
61961;BME280;47923;42.506;24.192;2022-12-07T15:17:14;95295.94;;;6.01;85.82
61961;BME280;47923;42.506;24.192;2022-12-07T15:19:39;95343.63;;;6.29;85.73
61961;BME280;47923;42.506;24.192;2022-12-07T15:22:05;95342.16;;;6.31;85.40
61961;BME280;47923;42.506;24.192;2022-12-07T15:24:30;95349.75;;;6.29;85.47
61961;BME280;47923;42.506;24.192;2022-12-07T15:26:56;95305.13;;;6.00;85.28